Terminal Aerodrome Forecast
Issued by NWS

Home | Current Version | Previous Version | Text Only | Print | Product List | Glossary On
Versions: 1 2 3 4 5 6 7 8 9 10 11 12 13 14 15
000
FTAK31 PAJN 031100
TAFASI
TAF
PASI 031130Z 0312/0412 16005KT P6SM -RA SCT015 OVC025
     FM031400 13005KT 6SM -RA BR SCT007 OVC015
     FM031900 21005KT P6SM -RA BKN015 OVC025
     FM032200 21008KT P6SM VCSH OVC025
     FM040300 13005KT P6SM SCT025 OVC050
     FM040800 12008KT P6SM -RA SCT025 OVC035=

USA.gov is the U.S. government's official web portal to all federal, state and local government web resources and services.